createdAt,value
2019-05-11T00:02:23.861Z,99.90
2019-05-11T00:04:52.490Z,99.90
2019-05-11T00:07:21.201Z,99.90
2019-05-11T00:09:58.252Z,99.90
2019-05-11T00:12:20.704Z,99.90
2019-05-11T00:14:49.338Z,99.90
2019-05-11T00:17:18.370Z,99.90
2019-05-11T00:19:47.104Z,99.90
2019-05-11T00:22:15.760Z,99.90
2019-05-11T00:24:44.422Z,99.90
2019-05-11T00:27:13.083Z,99.90
2019-05-11T00:29:41.797Z,99.90
2019-05-11T00:32:10.492Z,99.90
2019-05-11T00:34:39.147Z,99.90
2019-05-11T00:37:07.878Z,99.90
2019-05-11T00:39:36.783Z,99.90
2019-05-11T00:42:05.856Z,99.90
2019-05-11T00:44:34.491Z,99.90
2019-05-11T00:47:03.162Z,99.90
2019-05-11T00:49:32.132Z,99.90
2019-05-11T00:52:00.790Z,99.90
2019-05-11T00:54:29.722Z,99.90
2019-05-11T00:56:58.388Z,99.90
2019-05-11T00:59:27.030Z,99.90
2019-05-11T01:01:55.675Z,99.90
2019-05-11T01:04:24.651Z,99.90
2019-05-11T01:06:53.315Z,99.90
2019-05-11T01:09:21.963Z,99.90
2019-05-11T01:11:50.619Z,99.90
2019-05-11T01:14:19.300Z,99.90
2019-05-11T01:16:48.310Z,99.90
2019-05-11T01:19:17.277Z,99.90
2019-05-11T01:21:45.919Z,99.90
2019-05-11T01:24:15.042Z,99.90
2019-05-11T01:26:44.010Z,99.90
2019-05-11T01:29:13.058Z,99.90
2019-05-11T01:31:41.784Z,99.90
2019-05-11T01:34:10.414Z,99.90
2019-05-11T01:36:39.510Z,99.90
2019-05-11T01:39:08.519Z,99.90
2019-05-11T01:41:37.260Z,99.90
2019-05-11T01:44:05.915Z,99.90
2019-05-11T01:46:34.607Z,99.90
2019-05-11T01:49:03.453Z,99.90
2019-05-11T01:51:32.170Z,99.90
2019-05-11T01:54:01.471Z,99.90
2019-05-11T01:56:30.135Z,99.90
2019-05-11T01:58:58.998Z,99.90
2019-05-11T02:01:27.739Z,99.90
2019-05-11T02:03:56.402Z,99.90
2019-05-11T02:06:25.091Z,99.90
2019-05-11T02:08:53.732Z,99.90
2019-05-11T02:11:22.815Z,99.90
2019-05-11T02:13:51.468Z,99.90
2019-05-11T02:16:20.111Z,99.90
2019-05-11T02:18:48.864Z,99.90
2019-05-11T02:21:17.829Z,99.90
2019-05-11T02:23:47.130Z,99.90
2019-05-11T02:26:15.772Z,99.90
2019-05-11T02:28:44.436Z,99.90
2019-05-11T02:31:13.067Z,99.90
2019-05-11T02:33:41.987Z,99.90
2019-05-11T02:36:10.705Z,99.90
2019-05-11T02:38:39.338Z,99.90
2019-05-11T02:41:09.283Z,99.90
2019-05-11T02:43:38.165Z,99.90
2019-05-11T02:46:06.863Z,99.90
2019-05-11T02:48:35.616Z,99.90
2019-05-11T02:51:04.250Z,99.90
2019-05-11T02:53:34.567Z,99.90
2019-05-11T02:56:04.283Z,99.90
2019-05-11T02:58:33.018Z,99.90
2019-05-11T03:01:01.923Z,99.90
2019-05-11T03:03:30.558Z,99.90
2019-05-11T03:05:59.283Z,99.90
2019-05-11T03:08:28.200Z,99.90
2019-05-11T03:10:56.876Z,99.90
2019-05-11T03:13:25.518Z,99.90
2019-05-11T03:15:54.185Z,99.90
2019-05-11T03:18:23.126Z,99.90
2019-05-11T03:20:51.765Z,99.90
2019-05-11T03:23:20.501Z,99.90
2019-05-11T03:25:49.136Z,99.90
2019-05-11T03:28:17.802Z,99.90
2019-05-11T03:30:46.680Z,99.90
2019-05-11T03:33:15.721Z,99.90
2019-05-11T03:35:44.360Z,99.90
2019-05-11T03:38:13.387Z,99.90
2019-05-11T03:40:42.030Z,99.90
2019-05-11T03:43:10.799Z,99.90
2019-05-11T03:45:39.946Z,99.90
2019-05-11T03:48:08.640Z,99.90
2019-05-11T03:50:37.623Z,99.90
2019-05-11T03:53:06.279Z,99.90
2019-05-11T03:55:34.935Z,99.90
2019-05-11T03:58:03.606Z,99.90
2019-05-11T04:00:32.236Z,99.90
2019-05-11T04:03:00.891Z,99.90
2019-05-11T04:05:30.356Z,99.90
2019-05-11T04:07:59.317Z,99.90
2019-05-11T04:10:28.244Z,99.90
2019-05-11T04:12:57.215Z,99.90
2019-05-11T04:15:26.064Z,99.90
2019-05-11T04:17:54.783Z,99.90
2019-05-11T04:20:24.012Z,99.90
2019-05-11T04:22:52.668Z,99.90
2019-05-11T04:25:21.352Z,99.90
2019-05-11T04:27:50.044Z,99.90
2019-05-11T04:30:18.997Z,99.90
2019-05-11T04:32:48.264Z,99.90
2019-05-11T04:35:16.955Z,99.90
2019-05-11T04:37:46.077Z,99.90
2019-05-11T04:40:15.065Z,99.90
2019-05-11T04:43:02.711Z,99.90
2019-05-11T04:45:32.437Z,99.90
2019-05-11T04:48:02.079Z,99.90
2019-05-11T04:50:30.894Z,99.90
2019-05-11T04:52:59.644Z,99.90
2019-05-11T04:55:28.325Z,99.90
2019-05-11T04:57:57.029Z,99.90
2019-05-11T05:00:25.732Z,99.90
2019-05-11T05:02:55.638Z,99.90
2019-05-11T05:05:24.296Z,99.90
2019-05-11T05:07:52.972Z,99.90
2019-05-11T05:10:22.389Z,99.90
2019-05-11T05:12:53.316Z,99.90
2019-05-11T05:15:21.872Z,99.90
2019-05-11T05:17:50.575Z,99.90
2019-05-11T05:20:19.247Z,99.90
2019-05-11T05:22:47.907Z,99.90
2019-05-11T05:25:16.917Z,99.90
2019-05-11T05:27:45.639Z,99.90
2019-05-11T05:30:14.598Z,99.90
2019-05-11T05:32:43.249Z,99.90
2019-05-11T05:35:12.404Z,99.90
2019-05-11T05:37:41.070Z,99.90
2019-05-11T05:40:09.915Z,99.90
2019-05-11T05:42:38.579Z,99.90
2019-05-11T05:45:07.826Z,99.90
2019-05-11T05:47:37.032Z,99.90
2019-05-11T05:50:06.737Z,99.90
2019-05-11T05:52:35.395Z,99.90
2019-05-11T05:55:04.351Z,99.90
2019-05-11T05:57:33.287Z,99.90
2019-05-11T06:00:01.971Z,99.90
2019-05-11T06:02:30.668Z,99.90
2019-05-11T06:04:59.340Z,99.90
2019-05-11T06:07:28.127Z,99.90
2019-05-11T06:09:56.819Z,99.90
2019-05-11T06:12:25.471Z,99.90
2019-05-11T06:14:54.118Z,99.90
2019-05-11T06:17:22.829Z,99.90
2019-05-11T06:19:51.509Z,99.90
2019-05-11T06:22:20.247Z,99.90
2019-05-11T06:24:49.281Z,99.90
2019-05-11T06:27:18.021Z,99.90
2019-05-11T06:29:46.691Z,99.90
2019-05-11T06:32:15.635Z,99.90
2019-05-11T06:34:44.339Z,99.90
2019-05-11T06:37:13.042Z,99.90
2019-05-11T06:39:42.113Z,99.90
2019-05-11T06:42:10.868Z,99.90
2019-05-11T06:44:40.011Z,99.90
2019-05-11T06:47:08.708Z,99.90
2019-05-11T06:49:37.359Z,99.90
2019-05-11T06:52:06.019Z,99.90
2019-05-11T06:54:34.677Z,99.90
2019-05-11T06:57:03.359Z,99.90
2019-05-11T06:59:32.036Z,99.90
2019-05-11T07:02:00.710Z,99.90
2019-05-11T07:04:29.374Z,99.90
2019-05-11T07:06:58.040Z,99.90
2019-05-11T07:09:26.993Z,99.90
2019-05-11T07:11:55.687Z,99.90
2019-05-11T07:14:24.421Z,99.90
2019-05-11T07:16:53.373Z,99.90
2019-05-11T07:19:22.155Z,99.90
2019-05-11T07:21:50.799Z,99.90
2019-05-11T07:24:19.477Z,99.90
2019-05-11T07:26:48.487Z,99.90
2019-05-11T07:29:17.470Z,99.90
2019-05-11T07:31:46.183Z,99.90
2019-05-11T07:34:14.826Z,99.90
2019-05-11T07:36:43.510Z,99.90
2019-05-11T07:39:12.322Z,99.90
2019-05-11T07:41:41.093Z,99.90
2019-05-11T07:44:10.338Z,99.90
2019-05-11T07:46:39.018Z,99.90
2019-05-11T07:49:08.742Z,99.90
2019-05-11T07:51:38.887Z,99.90
2019-05-11T07:54:08.558Z,99.70
2019-05-11T07:56:39.019Z,99.90
2019-05-11T07:59:08.105Z,97.10
2019-05-11T08:01:38.594Z,96.50
2019-05-11T08:04:07.839Z,96.50
2019-05-11T08:06:38.937Z,95.60
2019-05-11T08:09:08.497Z,94.90
2019-05-11T08:11:38.909Z,95.10
2019-05-11T08:14:07.934Z,94.90
2019-05-11T08:16:39.139Z,95.10
2019-05-11T08:19:10.391Z,94.10
2019-05-11T08:21:38.872Z,94.50
2019-05-11T08:24:09.152Z,94.70
2019-05-11T08:26:38.726Z,93.20
2019-05-11T08:29:08.203Z,92.20
2019-05-11T08:31:38.541Z,93.00
2019-05-11T08:34:08.823Z,92.30
2019-05-11T08:36:37.973Z,91.00
2019-05-11T08:39:08.010Z,91.10
2019-05-11T08:41:38.447Z,91.90
2019-05-11T08:44:08.891Z,92.90
2019-05-11T08:46:38.548Z,93.30
2019-05-11T08:49:08.795Z,91.20
2019-05-11T08:51:38.758Z,90.40
2019-05-11T08:54:09.054Z,89.30
2019-05-11T08:56:38.346Z,89.10
2019-05-11T08:59:07.972Z,87.00
2019-05-11T09:01:39.262Z,86.50
2019-05-11T09:04:08.960Z,87.00
2019-05-11T09:06:37.959Z,84.50
2019-05-11T09:09:08.986Z,86.20
2019-05-11T09:11:38.901Z,86.50
2019-05-11T09:14:08.373Z,85.50
2019-05-11T09:16:38.398Z,84.10
2019-05-11T09:19:08.785Z,84.80
2019-05-11T09:21:38.395Z,83.10
2019-05-11T09:24:08.494Z,86.90
2019-05-11T09:26:38.931Z,88.90
2019-05-11T09:29:08.740Z,90.80
2019-05-11T09:31:38.214Z,92.50
2019-05-11T09:34:08.969Z,93.40
2019-05-11T09:36:38.863Z,94.10
2019-05-11T09:39:08.626Z,95.80
2019-05-11T09:41:38.323Z,95.30
2019-05-11T09:44:08.994Z,96.10
2019-05-11T09:46:38.484Z,96.80
2019-05-11T09:49:08.012Z,96.30
2019-05-11T09:51:37.981Z,96.30
2019-05-11T09:54:07.820Z,96.30
2019-05-11T09:56:38.247Z,99.00
2019-05-11T09:59:08.883Z,97.20
2019-05-11T10:01:37.935Z,98.70
2019-05-11T10:04:08.967Z,99.70
2019-05-11T10:06:38.779Z,99.90
2019-05-11T10:09:08.383Z,99.90
2019-05-11T10:11:39.676Z,99.90
2019-05-11T10:14:08.390Z,99.90
2019-05-11T10:16:38.635Z,99.90
2019-05-11T10:19:08.501Z,99.90
2019-05-11T10:21:38.518Z,99.90
2019-05-11T10:24:08.494Z,99.90
2019-05-11T10:26:38.402Z,99.90
2019-05-11T10:29:08.025Z,99.90
2019-05-11T10:31:38.543Z,99.90
2019-05-11T10:34:08.623Z,99.90
2019-05-11T10:36:38.553Z,99.90
2019-05-11T10:39:08.856Z,99.90
2019-05-11T10:41:38.713Z,99.90
2019-05-11T10:44:08.359Z,99.90
2019-05-11T10:46:38.029Z,99.90
2019-05-11T10:49:07.978Z,99.90
2019-05-11T10:51:38.383Z,99.90
2019-05-11T10:54:08.778Z,99.90
2019-05-11T10:56:38.826Z,99.90
2019-05-11T10:59:08.089Z,99.90
2019-05-11T11:01:38.129Z,99.90
2019-05-11T11:04:07.856Z,99.90
2019-05-11T11:06:38.644Z,99.90
2019-05-11T11:09:08.466Z,99.90
2019-05-11T11:11:38.257Z,99.90
2019-05-11T11:14:08.729Z,99.90
2019-05-11T11:16:42.482Z,99.90
2019-05-11T11:19:08.316Z,99.90
2019-05-11T11:21:38.322Z,99.90
2019-05-11T11:24:07.667Z,99.90
2019-05-11T11:26:38.077Z,99.90
2019-05-11T11:29:08.627Z,99.90
2019-05-11T11:31:38.138Z,99.90
2019-05-11T11:34:08.201Z,99.90
2019-05-11T11:36:37.770Z,99.90
2019-05-11T11:39:08.314Z,99.90
2019-05-11T11:41:37.971Z,99.90
2019-05-11T11:44:07.907Z,99.90
2019-05-11T11:46:51.262Z,99.90
2019-05-11T11:49:08.275Z,99.90
2019-05-11T11:51:37.878Z,99.90
2019-05-11T11:54:08.749Z,99.90
2019-05-11T11:56:38.194Z,99.90
2019-05-11T11:59:08.492Z,99.90
2019-05-11T12:01:38.555Z,99.90
2019-05-11T12:04:08.245Z,99.90
2019-05-11T12:06:38.582Z,99.90
2019-05-11T12:09:09.016Z,99.90
2019-05-11T12:11:38.192Z,99.90
2019-05-11T12:14:08.663Z,99.90
2019-05-11T12:16:38.872Z,99.90
2019-05-11T12:19:08.326Z,99.90
2019-05-11T12:21:37.901Z,99.90
2019-05-11T12:24:08.205Z,99.90
2019-05-11T12:26:38.923Z,99.90
2019-05-11T12:29:08.178Z,99.90
2019-05-11T12:31:37.907Z,99.90
2019-05-11T12:34:08.787Z,99.90
2019-05-11T12:36:38.675Z,99.90
2019-05-11T12:39:08.643Z,99.90
2019-05-11T12:41:38.768Z,99.90
2019-05-11T12:44:08.237Z,99.90
2019-05-11T12:46:39.543Z,99.90
2019-05-11T12:49:08.127Z,99.90
2019-05-11T12:51:38.299Z,99.90
2019-05-11T12:54:08.315Z,99.90
2019-05-11T12:56:38.335Z,99.90
2019-05-11T12:59:08.204Z,99.90
2019-05-11T13:01:38.218Z,99.90
2019-05-11T13:04:08.849Z,99.90
2019-05-11T13:06:38.537Z,99.90
2019-05-11T13:09:08.511Z,99.90
2019-05-11T13:11:37.963Z,99.90
2019-05-11T13:14:07.977Z,99.90
2019-05-11T13:16:37.801Z,99.90
2019-05-11T13:19:08.374Z,99.90
2019-05-11T13:21:38.335Z,99.90
2019-05-11T13:24:08.363Z,99.90
2019-05-11T13:26:38.002Z,99.90
2019-05-11T13:29:07.932Z,99.90
2019-05-11T13:31:38.429Z,99.90
2019-05-11T13:34:08.344Z,99.90
2019-05-11T13:36:38.204Z,99.90
2019-05-11T13:39:08.994Z,99.90
2019-05-11T13:41:38.388Z,99.90
2019-05-11T13:44:08.048Z,99.90
2019-05-11T13:46:38.852Z,99.90
2019-05-11T13:49:08.533Z,99.90
2019-05-11T13:51:38.774Z,99.90
2019-05-11T13:54:08.009Z,99.90
2019-05-11T13:56:37.896Z,99.90
2019-05-11T13:59:10.403Z,99.90
2019-05-11T14:01:38.889Z,99.90
2019-05-11T14:04:08.572Z,99.90
2019-05-11T14:06:37.986Z,99.90
2019-05-11T14:09:09.125Z,99.90
2019-05-11T14:11:39.004Z,99.90
2019-05-11T14:14:07.934Z,99.90
2019-05-11T14:16:37.887Z,99.90
2019-05-11T14:19:08.704Z,99.90
2019-05-11T14:21:38.434Z,99.90
2019-05-11T14:24:07.966Z,99.90
2019-05-11T14:26:38.598Z,99.90
2019-05-11T14:29:08.532Z,99.90
2019-05-11T14:31:38.625Z,99.90
2019-05-11T14:34:08.811Z,99.90
2019-05-11T14:36:38.787Z,99.90
2019-05-11T14:39:08.645Z,99.90
2019-05-11T14:41:38.303Z,99.90
2019-05-11T14:44:08.958Z,99.90
2019-05-11T14:46:38.392Z,99.90
2019-05-11T14:49:07.874Z,99.90
2019-05-11T14:51:38.841Z,99.90
2019-05-11T14:54:08.342Z,99.90
2019-05-11T14:56:38.109Z,99.90
2019-05-11T14:59:09.032Z,99.90
2019-05-11T15:01:38.248Z,99.90
2019-05-11T15:04:08.991Z,99.90
2019-05-11T15:06:38.621Z,99.90
2019-05-11T15:09:08.234Z,99.90
2019-05-11T15:11:38.853Z,99.90
2019-05-11T15:14:08.271Z,99.90
2019-05-11T15:16:38.411Z,99.90
2019-05-11T15:19:08.066Z,99.90
2019-05-11T15:21:38.717Z,99.90
2019-05-11T15:24:09.141Z,99.90
2019-05-11T15:26:38.253Z,99.90
2019-05-11T15:29:08.199Z,99.90
2019-05-11T15:31:38.152Z,99.90
2019-05-11T15:34:08.605Z,99.90
2019-05-11T15:36:38.615Z,99.90
2019-05-11T15:39:08.599Z,99.90
2019-05-11T15:41:38.902Z,99.90
2019-05-11T15:44:11.384Z,99.90
2019-05-11T15:46:39.046Z,99.90
2019-05-11T15:49:21.723Z,99.90
2019-05-11T15:51:41.078Z,99.90
2019-05-11T15:54:08.732Z,99.90
2019-05-11T15:56:38.463Z,99.90
2019-05-11T15:59:08.588Z,99.90
2019-05-11T16:01:41.057Z,99.90
2019-05-11T16:04:09.098Z,99.90
2019-05-11T16:06:37.929Z,99.90
2019-05-11T16:09:08.477Z,99.90
2019-05-11T16:11:38.738Z,99.90
2019-05-11T16:14:08.755Z,99.90
2019-05-11T16:16:39.071Z,99.90
2019-05-11T16:19:14.478Z,99.90
2019-05-11T16:21:38.753Z,99.90
2019-05-11T16:24:08.159Z,99.90
2019-05-11T16:26:37.348Z,99.90
2019-05-11T16:29:08.500Z,99.90
2019-05-11T16:31:37.863Z,99.90
2019-05-11T16:34:08.096Z,99.90
2019-05-11T16:36:38.988Z,99.90
2019-05-11T16:39:10.511Z,99.90
2019-05-11T16:41:38.974Z,99.90
2019-05-11T16:44:07.993Z,99.90
2019-05-11T16:46:38.856Z,99.90
2019-05-11T16:49:24.938Z,99.90
2019-05-11T16:51:40.860Z,99.90
2019-05-11T16:54:09.544Z,99.90
2019-05-11T16:56:38.456Z,99.90
2019-05-11T16:59:08.193Z,99.90
2019-05-11T17:01:38.041Z,99.90
2019-05-11T17:04:07.587Z,99.90
2019-05-11T17:06:38.533Z,99.90
2019-05-11T17:09:08.830Z,99.90
2019-05-11T17:11:38.436Z,99.90
2019-05-11T17:14:08.349Z,99.90
2019-05-11T17:16:38.560Z,99.90
2019-05-11T17:19:08.115Z,99.90
2019-05-11T17:21:38.152Z,99.90
2019-05-11T17:24:07.166Z,99.90
2019-05-11T17:26:38.360Z,99.90
2019-05-11T17:29:06.354Z,99.90
2019-05-11T17:31:35.370Z,99.90
2019-05-11T17:34:04.031Z,99.90
2019-05-11T17:36:32.732Z,99.90
2019-05-11T17:39:01.430Z,99.90
2019-05-11T17:41:30.092Z,99.90
2019-05-11T17:43:59.103Z,99.90
2019-05-11T17:46:28.004Z,99.90
2019-05-11T17:48:57.204Z,99.90
2019-05-11T17:51:25.858Z,99.90
2019-05-11T17:53:54.811Z,99.90
2019-05-11T17:56:24.121Z,99.90
2019-05-11T17:58:52.759Z,99.90
2019-05-11T18:01:21.796Z,99.90
2019-05-11T18:03:50.452Z,99.90
2019-05-11T18:06:19.686Z,99.90
2019-05-11T18:08:48.389Z,99.90
2019-05-11T18:11:18.502Z,99.90
2019-05-11T18:13:48.230Z,99.90
2019-05-11T18:16:18.730Z,99.90
2019-05-11T18:18:48.401Z,99.90
2019-05-11T18:21:18.810Z,99.90
2019-05-11T18:23:48.115Z,99.90
2019-05-11T18:26:18.097Z,99.90
2019-05-11T18:28:48.274Z,99.90
2019-05-11T18:31:18.141Z,99.90
2019-05-11T18:33:48.683Z,99.90
2019-05-11T18:36:18.316Z,99.90
2019-05-11T18:38:48.710Z,99.90
2019-05-11T18:41:18.737Z,99.90
2019-05-11T18:43:48.409Z,99.90
2019-05-11T18:46:17.310Z,99.90
2019-05-11T18:48:46.031Z,99.90
2019-05-11T18:51:14.738Z,99.90
2019-05-11T18:53:43.530Z,99.90
2019-05-11T18:56:12.373Z,99.90
2019-05-11T18:58:41.094Z,99.90
2019-05-11T19:01:10.940Z,99.90
2019-05-11T19:03:40.920Z,99.90
2019-05-11T19:06:09.630Z,99.90
2019-05-11T19:08:38.591Z,99.90
2019-05-11T19:11:09.149Z,99.90
2019-05-11T19:13:38.728Z,99.90
2019-05-11T19:16:08.721Z,99.90
2019-05-11T19:18:38.775Z,99.90
2019-05-11T19:21:09.208Z,99.90
2019-05-11T19:23:38.178Z,99.90
2019-05-11T19:26:08.347Z,99.90
2019-05-11T19:28:38.510Z,99.90
2019-05-11T19:31:08.278Z,99.90
2019-05-11T19:33:38.314Z,99.90
2019-05-11T19:36:07.934Z,99.90
2019-05-11T19:38:38.407Z,99.90
2019-05-11T19:41:08.030Z,99.90
2019-05-11T19:43:38.193Z,99.90
2019-05-11T19:46:08.912Z,99.90
2019-05-11T19:48:38.430Z,99.90
2019-05-11T19:51:10.932Z,99.90
2019-05-11T19:53:38.608Z,99.90
2019-05-11T19:56:07.865Z,99.90
2019-05-11T19:58:38.074Z,99.90
2019-05-11T20:01:08.658Z,99.90
2019-05-11T20:03:37.924Z,99.90
2019-05-11T20:06:08.732Z,99.90
2019-05-11T20:08:37.260Z,99.90
2019-05-11T20:11:08.074Z,99.90
2019-05-11T20:13:38.663Z,99.90
2019-05-11T20:16:08.246Z,99.90
2019-05-11T20:18:37.075Z,99.90
2019-05-11T20:21:16.692Z,99.90
2019-05-11T20:23:37.983Z,99.90
2019-05-11T20:26:08.865Z,99.90
2019-05-11T20:28:37.943Z,99.90
2019-05-11T20:31:08.029Z,99.90
2019-05-11T20:33:38.578Z,99.90
2019-05-11T20:36:08.692Z,99.90
2019-05-11T20:38:38.659Z,99.90
2019-05-11T20:41:08.372Z,99.90
2019-05-11T20:43:37.281Z,99.90
2019-05-11T20:46:08.184Z,99.90
2019-05-11T20:48:38.255Z,99.90
2019-05-11T20:51:08.130Z,99.90
2019-05-11T20:53:38.775Z,99.90
2019-05-11T20:56:08.554Z,99.90
2019-05-11T20:58:55.304Z,99.90
2019-05-11T21:01:24.578Z,99.90
2019-05-11T21:03:53.433Z,99.90
2019-05-11T21:06:22.587Z,99.90
2019-05-11T21:08:51.328Z,99.90
2019-05-11T21:11:20.326Z,99.90
2019-05-11T21:13:49.096Z,99.90
2019-05-11T21:16:17.727Z,99.90
2019-05-11T21:18:46.458Z,99.90
2019-05-11T21:21:15.449Z,99.90
2019-05-11T21:23:44.129Z,99.90
2019-05-11T21:26:15.700Z,99.90
2019-05-11T21:28:43.647Z,99.90
2019-05-11T21:31:12.415Z,99.90
2019-05-11T21:33:41.129Z,99.90
2019-05-11T21:36:09.794Z,99.90
2019-05-11T21:38:38.699Z,99.90
2019-05-11T21:41:08.807Z,99.90
2019-05-11T21:43:37.784Z,99.90
2019-05-11T21:46:08.181Z,99.90
2019-05-11T21:48:38.577Z,99.90
2019-05-11T21:51:08.619Z,99.90
2019-05-11T21:55:54.699Z,99.90
2019-05-11T21:58:23.692Z,99.90
2019-05-11T22:00:52.584Z,99.90
2019-05-11T22:03:21.571Z,99.90
2019-05-11T22:05:50.572Z,99.90
2019-05-11T22:08:19.227Z,99.90
2019-05-11T22:10:48.187Z,99.90
2019-05-11T22:13:17.756Z,99.90
2019-05-11T22:15:48.691Z,99.90
2019-05-11T22:18:30.262Z,99.90
2019-05-11T22:20:48.605Z,99.90
2019-05-11T22:23:17.740Z,99.90
2019-05-11T22:25:47.618Z,99.90
2019-05-11T22:28:17.676Z,99.90
2019-05-11T22:30:48.358Z,99.90
2019-05-11T22:33:17.716Z,99.90
2019-05-11T22:35:48.076Z,99.90
2019-05-11T22:38:18.341Z,99.90
2019-05-11T22:40:48.755Z,99.90
2019-05-11T22:43:18.201Z,99.90
2019-05-11T22:45:48.604Z,99.90
2019-05-11T22:48:17.910Z,99.90
2019-05-11T22:50:48.153Z,99.90
2019-05-11T22:53:18.823Z,99.90
2019-05-11T22:55:48.547Z,99.90
2019-05-11T22:58:17.924Z,99.90
2019-05-11T23:00:47.009Z,99.90
2019-05-11T23:03:18.599Z,99.90
2019-05-11T23:05:47.698Z,99.90
2019-05-11T23:08:18.154Z,99.90
2019-05-11T23:10:47.879Z,99.90
2019-05-11T23:13:18.629Z,99.90
2019-05-11T23:15:47.808Z,99.90
2019-05-11T23:18:18.004Z,99.90
2019-05-11T23:20:47.844Z,99.90
2019-05-11T23:23:17.844Z,99.90
2019-05-11T23:25:46.643Z,99.90
2019-05-11T23:28:15.307Z,99.90
2019-05-11T23:30:44.038Z,99.90
2019-05-11T23:33:12.677Z,99.90
2019-05-11T23:35:41.327Z,99.90
2019-05-11T23:38:09.951Z,99.90
2019-05-11T23:40:38.602Z,99.90
2019-05-11T23:43:08.678Z,99.90
2019-05-11T23:45:38.284Z,99.90
2019-05-11T23:48:07.359Z,99.90
2019-05-11T23:50:38.364Z,99.90
2019-05-11T23:53:09.851Z,99.90
2019-05-11T23:55:37.994Z,99.90
2019-05-11T23:59:58.090Z,99.90
